This is the latest recevied weather packets stored in our database for station/object WX6HNX-14. If no packets are shown the sender has not sent any weather packets the latest 10 day(s).
| Time | Temp. | Humidity | Pressure | Rain* | Wind** | Luminosity | Snow |
|---|---|---|---|---|---|---|---|
| 1777624487 | 17.78° C | 58% | 1013.5 hPa | 0 mm | - | - | - |
| 1777624186 | 17.78° C | 58% | 1013.5 hPa | 0 mm | - | - | - |
| 1777623483 | 17.22° C | 61% | 1013.6 hPa | 0 mm | - | - | - |
| 1777623182 | 16.67° C | 62% | 1013.6 hPa | 0 mm | - | - | - |
| 1777622670 | 16.67° C | 64% | 1013.6 hPa | 0 mm | - | - | - |
| 1777622370 | 16.67° C | 63% | 1013.6 hPa | 0 mm | - | - | - |
| 1777622070 | 16.67° C | 62% | 1013.6 hPa | 0 mm | - | - | - |
| 1777621770 | 17.22° C | 62% | 1013.5 hPa | 0 mm | - | - | - |
| 1777621470 | 17.22° C | 61% | 1013.5 hPa | 0 mm | - | - | - |
| 1777621170 | 17.22° C | 60% | 1013.4 hPa | 0 mm | - | - | - |
| 1777620870 | 17.78° C | 59% | 1013.5 hPa | 0 mm | - | - | - |
| 1777620570 | 17.78° C | 58% | 1013.4 hPa | 0 mm | - | - | - |
| 1777620270 | 17.78° C | 56% | 1013.4 hPa | 0 mm | - | - | - |
| 1777619969 | 18.33° C | 55% | 1013.3 hPa | 0 mm | - | - | - |
| 1777619670 | 17.78° C | 56% | 1013.2 hPa | 0 mm | - | - | - |
| 1777619370 | 17.78° C | 57% | 1013.2 hPa | 0 mm | - | - | - |
| 1777619070 | 17.78° C | 58% | 1013.2 hPa | 0 mm | - | - | - |
| 1777618770 | 17.22° C | 59% | 1013.1 hPa | 0 mm | - | - | - |
| 1777618470 | 17.22° C | 60% | 1013 hPa | 0 mm | - | - | - |
| 1777618170 | 17.22° C | 60% | 1013 hPa | 0 mm | - | - | - |
| 1777617870 | 17.22° C | 60% | 1012.9 hPa | 0 mm | - | - | - |
| 1777616970 | 18.33° C | 58% | 1012.8 hPa | 0 mm | - | - | - |
| 1777616670 | 18.33° C | 58% | 1012.9 hPa | 0 mm | - | - | - |
| 1777616287 | 18.89° C | 57% | 1012.9 hPa | 0 mm | - | - | - |
| 1777615987 | 19.44° C | 55% | 1012.8 hPa | 0 mm | - | - | - |
* Rain latest hour (hover to see other rain measurements)
** Current wind speed in m/s (hover to see current wind gust speed)